createdAt,value
2022-11-24T06:30:33.344Z,89.58
2022-11-24T06:33:26.824Z,89.07
2022-11-24T06:50:23.652Z,90.12
2022-11-24T07:04:48.550Z,89.53
2022-11-24T07:08:21.559Z,89.81
2022-11-24T07:11:41.860Z,89.72
2022-11-24T07:17:53.675Z,90.11
2022-11-24T07:20:57.490Z,90.03
2022-11-24T07:23:54.142Z,89.53
2022-11-24T07:27:09.619Z,89.30
2022-11-24T07:29:58.641Z,89.29
2022-11-24T07:32:47.383Z,89.74
2022-11-24T07:35:45.560Z,89.77
2022-11-24T07:46:05.303Z,89.24
2022-11-24T07:52:38.741Z,89.37
2022-11-24T07:55:55.743Z,89.50
2022-11-24T07:58:38.544Z,89.61
2022-11-24T08:04:52.292Z,89.32
2022-11-24T08:07:31.867Z,88.72
2022-11-24T08:10:03.585Z,89.07
2022-11-24T08:16:01.681Z,88.68
2022-11-24T08:18:42.567Z,88.70
2022-11-24T08:21:27.419Z,88.79
2022-11-24T08:24:36.251Z,88.58
2022-11-24T08:27:22.807Z,88.28
2022-11-24T08:29:58.921Z,88.41
2022-11-24T08:35:48.447Z,87.34
2022-11-24T08:38:24.645Z,88.07
2022-11-24T08:44:06.918Z,87.89
2022-11-24T08:46:37.044Z,87.90
2022-11-24T08:49:10.917Z,87.67
2022-11-24T08:51:54.494Z,87.67
2022-11-24T08:54:28.314Z,87.80
2022-11-24T08:57:05.539Z,87.61
2022-11-24T08:59:38.187Z,87.90
2022-11-24T09:02:16.302Z,87.70
2022-11-24T09:04:49.697Z,88.34
2022-11-24T09:07:22.127Z,88.16
2022-11-24T09:09:54.345Z,88.03
2022-11-24T09:12:24.657Z,87.96
2022-11-24T09:14:56.815Z,88.04
2022-11-24T09:17:29.982Z,88.43
2022-11-24T09:22:57.910Z,87.29
2022-11-24T09:25:26.656Z,87.29
2022-11-24T09:28:00.797Z,87.98
2022-11-24T09:30:45.957Z,88.10
2022-11-24T09:33:25.444Z,87.95
2022-11-24T09:36:00.130Z,88.39
2022-11-24T09:38:31.445Z,88.75
2022-11-24T09:44:24.827Z,88.37
2022-11-24T09:50:13.578Z,88.70
2022-11-24T09:52:53.544Z,88.86
2022-11-24T09:55:57.184Z,89.46
2022-11-24T09:58:50.186Z,89.70
2022-11-24T10:01:28.081Z,89.95
2022-11-24T10:04:06.247Z,90.05
2022-11-24T10:07:09.441Z,90.28
2022-11-24T10:15:32.981Z,90.19
2022-11-24T10:21:47.766Z,90.30
2022-11-24T12:37:31.606Z,90.49
2022-11-24T13:44:36.262Z,0.00
2022-11-24T13:48:31.323Z,0.00
